This is the latest recevied weather packets stored in our database for station/object KF6RAL-6. If no packets are shown the sender has not sent any weather packets the latest 1 day(s).
| Time | Temp. | Humidity | Pressure | Rain* | Wind** | Luminosity | Snow |
|---|---|---|---|---|---|---|---|
| 1778067492 | 10° C | 55% | 1014 hPa | 0 mm | - | - | - |
| 1778067452 | 10° C | 55% | 1014 hPa | 0 mm | - | - | - |
| 1778067031 | 9.44° C | 58% | 1013.9 hPa | 0 mm | - | - | - |
| 1778066610 | 9.44° C | 59% | 1013.8 hPa | 0 mm | - | - | - |
| 1778066189 | 8.89° C | 59% | 1013.1 hPa | 0 mm | - | - | - |
| 1778065768 | 8.89° C | 60% | 1013 hPa | 0 mm | - | - | - |
| 1778065347 | 8.89° C | 60% | 1012.9 hPa | 0 mm | - | - | - |
| 1778064084 | 8.89° C | 62% | 1013.3 hPa | 0 mm | - | - | - |
| 1778063663 | 8.33° C | 64% | 1013.2 hPa | 0.51 mm | - | - | - |
| 1778061560 | 8.33° C | 73% | 1012.6 hPa | 0.51 mm | - | - | - |
| 1778056927 | 8.89° C | 71% | 1012.1 hPa | 0 mm | - | - | - |
| 1778056085 | 12.78° C | 65% | 1010.8 hPa | 0 mm | - | - | - |
| 1778052717 | 12.22° C | 66% | 1009.2 hPa | 0 mm | - | - | - |
| 1778052296 | 12.78° C | 68% | 1009.2 hPa | 0 mm | - | - | - |
| 1778051874 | 12.78° C | 67% | 1009.2 hPa | 0.25 mm | - | - | - |
| 1778051032 | 12.22° C | 69% | 1009.2 hPa | 0.25 mm | - | - | - |
| 1778050190 | 11.67° C | 70% | 1009.7 hPa | 0.25 mm | - | - | - |
| 1778049769 | 11.67° C | 69% | 1009.9 hPa | 0.25 mm | - | - | - |
| 1778049348 | 12.22° C | 69% | 1009.8 hPa | 0.25 mm | - | - | - |
| 1778048927 | 11.67° C | 69% | 1009.8 hPa | 0.25 mm | - | - | - |
| 1778047664 | 13.33° C | 64% | 1009.3 hPa | 0 mm | - | - | - |
| 1778046822 | 12.78° C | 66% | 1009.5 hPa | 0 mm | - | - | - |
| 1778046401 | 11.67° C | 71% | 1008.9 hPa | 0 mm | - | - | - |
| 1778045559 | 11.67° C | 69% | 1009.1 hPa | 0 mm | - | - | - |
| 1778044717 | 13.33° C | 64% | 1009 hPa | 0 mm | - | - | - |
* Rain latest hour (hover to see other rain measurements)
** Current wind speed in m/s (hover to see current wind gust speed)